Impacts METAR Board INFO
IDs:

KSAN - San Diego Intl Arpt, CA, US

Updated at: 0720 UTC 11 Dec 2017
Potential Impact None Slight Moderate High
Time10/19Z 10/20Z 10/21Z 10/22Z 10/23Z 11/00Z 11/01Z 11/02Z 11/03Z 11/04Z 11/05Z 11/06Z 11/07Z
VIS10 10 10 10 10 10 10 10 10 10 10
CIG250 250 250 250 250 250 250 -- -- -- 250
CoverBKNBKNBKNBKNBKNBKNBKNSCTSCTSCTBKN
FltCatVFRVFRVFRVFRVFRVFRVFRVFRVFRVFRVFR
WX----------------------
WDir3103203303203203100003600
WSpd6 6 7 6 7 4 0 0 0 4 0
WGst-- -- -- -- -- -- -- -- -- -- --
Raw hourly METARs
KSAN 101851Z 31006KT 10SM BKN250 26/M09 A3014 RMK AO2 SLP207 T02561089
KSAN 101951Z 32006KT 10SM BKN250 25/M08 A3012 RMK AO2 SLP198 T02501078
KSAN 102051Z 33007KT 10SM FEW010 BKN250 24/M02 A3009 RMK AO2 SLP190 FU FEW010 T02441022 58023
KSAN 102151Z 32006KT 10SM FEW010 BKN250 25/M03 A3009 RMK AO2 SLP187 FU FEW010 T02501033
KSAN 102251Z 32007KT 10SM FEW010 BKN250 24/M05 A3008 RMK AO2 SLP186 FU FEW010 T02391050
KSAN 102351Z 31004KT 10SM FEW010 BKN250 23/M05 A3009 RMK AO2 SLP188 FU FEW010 T02331050 10261 20211 55002
KSAN 110051Z 00000KT 10SM FEW010 BKN250 22/M03 A3010 RMK AO2 SLP193 FU FEW010 T02221033
KSAN 110151Z 00000KT 10SM SCT250 20/M04 A3012 RMK AO2 SLP199 T02001039
KSAN 110251Z 00000KT 10SM SCT250 19/M04 A3014 RMK AO2 SLP204 T01891039 53016
KSAN 110351Z 36004KT 10SM SCT250 18/M03 A3014 RMK AO2 SLP207 T01781033
KSAN 110451Z 00000KT 10SM BKN250 17/M03 A3015 RMK AO2 SLP210 T01671033